This is the latest recevied weather packets stored in our database for station/object KD8OZS. If no packets are shown the sender has not sent any weather packets the latest 10 day(s).
| Time | Temp. | Humidity | Pressure | Rain* | Wind** | Luminosity | Snow |
|---|---|---|---|---|---|---|---|
| 1787594916 | 21.67° C | 63% | 1009.8 hPa | 0 mm | - | 877 W/m² | - |
| 1787594611 | 21.67° C | 66% | 1010 hPa | 0 mm | - | 791 W/m² | - |
| 1787594309 | 21.67° C | 65% | 1010.2 hPa | 0 mm | - | 276 W/m² | - |
| 1787594010 | 21.67° C | 67% | 1010.2 hPa | 0 mm | - | 696 W/m² | - |
| 1787593704 | 21.67° C | 63% | 1010 hPa | 0 mm | - | 615 W/m² | - |
| 1787593399 | 21.67° C | 63% | 1010.1 hPa | 0 mm | - | 237 W/m² | - |
| 1787593094 | 21.67° C | 64% | 1010 hPa | 0 mm | - | 817 W/m² | - |
| 1787592789 | 21.11° C | 68% | 1010.1 hPa | 0 mm | - | 709 W/m² | - |
| 1787592489 | 21.67° C | 69% | 1010.1 hPa | 0 mm | - | 295 W/m² | - |
| 1787592184 | 21.67° C | 67% | 1010.1 hPa | 0 mm | - | 307 W/m² | - |
| 1787591881 | 21.67° C | 68% | 1010 hPa | 0 mm | - | 360 W/m² | - |
| 1787591581 | 21.11° C | 66% | 1010.2 hPa | 0 mm | - | 211 W/m² | - |
| 1787591276 | 21.11° C | 69% | 1010 hPa | 0 mm | - | 481 W/m² | - |
| 1787590971 | 21.11° C | 67% | 1010.2 hPa | 0 mm | - | 237 W/m² | - |
| 1787590667 | 20.56° C | 68% | 1010.2 hPa | 0 mm | - | 176 W/m² | - |
| 1787590363 | 20° C | 71% | 1010.1 hPa | 0 mm | - | 108 W/m² | - |
| 1787590057 | 20.56° C | 71% | 1010 hPa | 0 mm | - | 314 W/m² | - |
| 1787589753 | 20° C | 72% | 1010.3 hPa | 0 mm | - | 174 W/m² | - |
| 1787589448 | 21.11° C | 67% | 1010.2 hPa | 0 mm | - | 191 W/m² | - |
| 1787589143 | 20.56° C | 70% | 1010.4 hPa | 0 mm | - | 163 W/m² | - |
| 1787588838 | 20.56° C | 70% | 1010.2 hPa | 0 mm | - | 294 W/m² | - |
| 1787588535 | 20° C | 72% | 1010 hPa | 0 mm | - | 220 W/m² | - |
| 1787588230 | 20° C | 72% | 1010.2 hPa | 0 mm | - | 220 W/m² | - |
| 1787587925 | 20.56° C | 69% | 1010.1 hPa | 0 mm | - | 232 W/m² | - |
| 1787587620 | 20° C | 70% | 1010 hPa | 0 mm | - | 283 W/m² | - |
* Rain latest hour (hover to see other rain measurements)
** Current wind speed in m/s (hover to see current wind gust speed)